Time;durP1;ratioP1;P1;durP2;ratioP2;P2;SDS_P1;SDS_P2;PMS_P1;PMS_P2;Temp;Humidity;BMP_temperature;BMP_pressure;BME280_temperature;BME280_humidity;BME280_pressure;Samples;Min_cycle;Max_cycle;Signal;HPM_P1;HPM_P2
2023/06/29 00:01:08;;;;;;;21.92;14.90;;;;;;;16.48;55.75;101623.13;4971455;28;20079;-68
2023/06/29 00:03:34;;;;;;;24.00;14.82;;;;;;;16.47;56.12;101619.63;4966842;28;20030;-69
2023/06/29 00:06:01;;;;;;;24.50;14.88;;;;;;;16.50;55.89;101615.97;4968947;28;21525;-68
2023/06/29 00:08:28;;;;;;;24.05;14.48;;;;;;;16.41;56.13;101612.88;4968422;28;20046;-68
2023/06/29 00:10:55;;;;;;;22.73;15.25;;;;;;;16.38;56.13;101615.69;4985016;28;20042;-68
2023/06/29 00:13:49;;;;;;;25.02;14.07;;;;;;;16.35;56.26;101615.88;4981739;28;20638;-68
2023/06/29 00:16:19;;;;;;;21.45;15.02;;;;;;;16.32;56.10;101609.91;4970013;28;20038;-68
2023/06/29 00:18:55;;;;;;;27.52;16.58;;;;;;;16.29;56.58;101608.28;4963517;28;20035;-68
2023/06/29 00:21:28;;;;;;;22.58;14.57;;;;;;;16.16;56.83;101607.22;4966575;28;20087;-67
2023/06/29 00:23:58;;;;;;;26.10;15.05;;;;;;;16.31;56.65;101614.31;4949232;28;20049;-68
2023/06/29 00:26:36;;;;;;;29.15;15.93;;;;;;;16.31;56.35;101605.53;4972027;28;20052;-68
2023/06/29 00:29:05;;;;;;;24.80;16.38;;;;;;;16.35;56.58;101607.09;4957826;28;20065;-68
2023/06/29 00:31:38;;;;;;;25.80;13.77;;;;;;;16.39;56.59;101601.56;4964648;28;20061;-68
2023/06/29 00:34:08;;;;;;;22.73;13.20;;;;;;;16.45;56.42;101607.47;4957925;28;20452;-67
2023/06/29 00:36:34;;;;;;;24.08;15.38;;;;;;;16.45;56.26;101612.75;4968078;28;20038;-68
2023/06/29 00:39:05;;;;;;;24.95;14.98;;;;;;;16.48;56.25;101602.00;4957154;28;20692;-67
2023/06/29 00:41:45;;;;;;;23.15;14.77;;;;;;;16.51;56.25;101596.56;4968066;28;20034;-67
2023/06/29 00:44:13;;;;;;;22.35;13.40;;;;;;;16.50;56.08;101597.50;4954145;28;20072;-67
2023/06/29 00:46:47;;;;;;;25.48;15.73;;;;;;;16.35;56.16;101593.91;4969762;28;20034;-69
2023/06/29 00:49:12;;;;;;;24.63;14.13;;;;;;;16.45;56.11;101599.56;4957338;28;20061;-68
2023/06/29 00:51:40;;;;;;;22.42;13.55;;;;;;;16.47;56.13;101587.97;4964394;28;20038;-68
2023/06/29 00:54:26;;;;;;;25.08;15.45;;;;;;;16.53;56.24;101594.69;4954909;28;20054;-69
2023/06/29 00:57:08;;;;;;;21.52;13.57;;;;;;;16.52;56.13;101583.28;4967934;28;20034;-67
2023/06/29 00:59:34;;;;;;;17.08;11.15;;;;;;;16.54;55.86;101583.22;4951498;28;20121;-67
2023/06/29 01:02:13;;;;;;;27.40;14.40;;;;;;;16.53;55.78;101578.88;4969515;28;20030;-67
2023/06/29 01:04:41;;;;;;;25.02;13.32;;;;;;;16.59;55.65;101583.81;4957140;28;20046;-68
2023/06/29 01:07:24;;;;;;;21.25;13.75;;;;;;;16.55;55.85;101577.84;4968861;28;20114;-71
2023/06/29 01:10:03;;;;;;;19.75;13.38;;;;;;;16.54;55.86;101575.31;4950085;28;20034;-70
2023/06/29 01:12:36;;;;;;;22.17;12.93;;;;;;;16.55;55.48;101580.47;4964269;28;20030;-69
2023/06/29 01:15:06;;;;;;;25.33;14.98;;;;;;;16.47;55.39;101573.94;4968232;28;20499;-70
2023/06/29 01:17:41;;;;;;;26.10;12.75;;;;;;;16.51;55.48;101565.78;4971494;28;20129;-74
2023/06/29 01:20:13;;;;;;;21.73;13.82;;;;;;;16.50;55.61;101568.50;4984115;28;20042;-75
2023/06/29 01:22:53;;;;;;;;;;;;;;;16.52;55.66;101572.75;4955702;28;20418;-74
2023/06/29 01:25:20;;;;;;;25.83;13.60;;;;;;;16.51;55.51;101564.91;4980249;28;20205;-74
2023/06/29 01:27:56;;;;;;;20.15;13.05;;;;;;;16.48;55.27;101570.34;4966513;28;20735;-74
2023/06/29 01:30:34;;;;;;;27.15;15.45;;;;;;;16.52;55.22;101562.19;4971140;28;20034;-68
2023/06/29 01:33:04;;;;;;;23.95;15.20;;;;;;;16.49;55.20;101561.50;4955152;28;20049;-69
2023/06/29 01:35:34;;;;;;;26.67;15.48;;;;;;;16.38;55.60;101548.91;4968204;28;20049;-74
2023/06/29 01:38:07;;;;;;;19.45;11.95;;;;;;;16.48;55.59;101554.53;4945543;28;20058;-74
2023/06/29 01:40:38;;;;;;;27.33;14.93;;;;;;;16.48;55.52;101544.81;4972232;28;20038;-74
2023/06/29 01:43:10;;;;;;;22.38;12.60;;;;;;;16.50;55.39;101548.22;4947115;28;20049;-75
2023/06/29 01:45:37;;;;;;;33.47;15.73;;;;;;;16.44;55.35;101547.69;4970365;28;20034;-74
2023/06/29 01:48:26;;;;;;;23.95;14.68;;;;;;;16.45;55.49;101544.16;4943840;28;20144;-68
2023/06/29 01:51:01;;;;;;;22.13;14.73;;;;;;;16.42;55.15;101546.00;4960981;28;20068;-68
2023/06/29 01:53:29;;;;;;;23.20;14.00;;;;;;;16.39;55.38;101540.88;4959540;28;20046;-68
2023/06/29 01:56:05;;;;;;;19.55;12.00;;;;;;;16.42;55.35;101540.75;4975028;28;20042;-68
2023/06/29 01:58:30;;;;;;;22.50;13.65;;;;;;;16.46;55.44;101530.00;4954532;28;20549;-68
2023/06/29 02:01:00;;;;;;;28.42;14.40;;;;;;;16.47;55.53;101532.56;4968164;28;20059;-68
2023/06/29 02:03:26;;;;;;;18.92;12.75;;;;;;;16.54;55.54;101530.44;4986451;28;20508;-70
2023/06/29 02:05:58;;;;;;;22.67;14.35;;;;;;;16.52;55.15;101532.31;4968863;28;20044;-70
2023/06/29 02:08:39;;;;;;;26.50;13.70;;;;;;;16.46;55.39;101527.38;4961266;28;20070;-70
2023/06/29 02:11:09;;;;;;;21.05;14.05;;;;;;;16.45;55.39;101528.31;4980853;28;20057;-70
2023/06/29 02:13:34;;;;;;;21.80;13.73;;;;;;;16.46;55.42;101527.38;4963445;28;20140;-70
2023/06/29 02:16:11;;;;;;;19.40;13.43;;;;;;;16.43;55.33;101528.38;4982388;28;20026;-70
2023/06/29 02:18:41;;;;;;;22.33;13.75;;;;;;;16.36;55.14;101522.59;4985099;28;20038;-70
2023/06/29 02:21:10;;;;;;;23.00;15.45;;;;;;;16.36;55.25;101522.59;4984447;28;20026;-69
2023/06/29 02:23:39;;;;;;;25.83;16.30;;;;;;;16.20;55.76;101521.72;4951242;28;20046;-74
2023/06/29 02:26:10;;;;;;;27.63;14.85;;;;;;;16.19;55.64;101522.66;4968254;28;20030;-75
2023/06/29 02:28:36;;;;;;;25.00;16.13;;;;;;;16.14;55.63;101519.41;4972955;28;20053;-74
2023/06/29 02:31:01;;;;;;;24.83;14.60;;;;;;;16.12;55.96;101514.22;4985883;28;20042;-74
2023/06/29 02:33:27;;;;;;;23.50;14.93;;;;;;;16.08;56.16;101514.47;4967119;28;20045;-75
2023/06/29 02:35:53;;;;;;;31.35;16.48;;;;;;;16.08;56.07;101517.09;4955562;28;20030;-74
2023/06/29 02:38:21;;;;;;;25.58;16.00;;;;;;;16.07;55.94;101507.50;4955571;28;20073;-73
2023/06/29 02:40:57;;;;;;;28.52;16.13;;;;;;;16.09;56.08;101505.63;4988228;28;20031;-74
2023/06/29 02:43:34;;;;;;;22.17;14.60;;;;;;;16.20;56.27;101508.53;4933034;28;20461;-74
2023/06/29 02:46:15;;;;;;;28.05;17.33;;;;;;;16.06;56.11;101506.63;4967768;28;20038;-72
2023/06/29 02:48:48;;;;;;;29.70;17.50;;;;;;;16.08;55.97;101503.91;4968980;28;20034;-72
2023/06/29 02:51:15;;;;;;;26.00;15.85;;;;;;;16.08;56.41;101512.66;4952036;28;20122;-71
2023/06/29 02:53:41;;;;;;;25.17;15.73;;;;;;;16.00;56.35;101507.81;4965750;28;20478;-72
2023/06/29 02:56:12;;;;;;;26.63;16.40;;;;;;;16.02;56.23;101507.75;4971610;28;20038;-72
2023/06/29 02:58:40;;;;;;;31.10;17.67;;;;;;;15.92;56.76;101501.22;4972184;28;20045;-72
2023/06/29 03:01:20;;;;;;;28.23;16.13;;;;;;;15.91;56.89;101505.63;4970238;28;20399;-72
2023/06/29 03:03:47;;;;;;;28.85;17.08;;;;;;;15.96;56.74;101503.59;4967166;28;20053;-73
2023/06/29 03:06:20;;;;;;;27.65;16.75;;;;;;;15.98;56.69;101506.16;4966097;28;20073;-73
2023/06/29 03:08:51;;;;;;;26.70;16.42;;;;;;;15.94;56.78;101502.81;4956250;28;20038;-72
2023/06/29 03:11:21;;;;;;;27.42;16.05;;;;;;;16.06;56.33;101496.06;4969377;28;20034;-71
2023/06/29 03:13:57;;;;;;;21.40;15.13;;;;;;;16.08;56.46;101499.47;4963137;28;20074;-72
2023/06/29 03:16:25;;;;;;;26.83;16.45;;;;;;;16.08;56.50;101503.91;4969963;28;20045;-71
2023/06/29 03:18:51;;;;;;;30.67;17.67;;;;;;;16.07;56.16;101491.69;4956614;28;20596;-71
2023/06/29 03:21:23;;;;;;;29.25;17.90;;;;;;;16.00;56.31;101497.28;4987175;28;20136;-71
2023/06/29 03:23:54;;;;;;;26.52;14.38;;;;;;;16.06;56.46;101495.22;4971218;28;20070;-73
2023/06/29 03:26:24;;;;;;;29.85;16.73;;;;;;;16.02;56.53;101489.28;4977720;28;20477;-72
2023/06/29 03:28:52;;;;;;;22.00;16.73;;;;;;;16.09;56.52;101503.84;4966995;28;20039;-73
2023/06/29 03:31:20;;;;;;;27.88;16.98;;;;;;;16.14;56.38;101503.59;4969894;28;20038;-73
2023/06/29 03:34:07;;;;;;;24.45;16.90;;;;;;;16.21;56.39;101499.69;4945391;28;20046;-71
2023/06/29 03:36:37;;;;;;;26.13;16.88;;;;;;;16.20;55.89;101490.09;4969285;28;20146;-73
2023/06/29 03:39:05;;;;;;;30.25;16.80;;;;;;;16.23;56.08;101492.53;4939654;28;20042;-73
2023/06/29 03:41:40;;;;;;;23.30;16.55;;;;;;;16.25;55.74;101489.84;4970070;28;20061;-72
2023/06/29 03:44:07;;;;;;;29.45;19.23;;;;;;;16.12;55.87;101487.00;4958320;28;20044;-70
2023/06/29 03:46:40;;;;;;;28.73;17.67;;;;;;;16.04;56.18;101490.06;4963452;28;20031;-70
2023/06/29 03:49:08;;;;;;;31.48;17.58;;;;;;;15.85;56.82;101491.94;4951552;28;20572;-70
2023/06/29 03:51:38;;;;;;;31.75;18.40;;;;;;;16.05;56.26;101488.28;4956047;28;20026;-69
2023/06/29 03:54:06;;;;;;;30.45;16.05;;;;;;;15.99;56.56;101490.28;4968114;28;20073;-69
2023/06/29 03:56:34;;;;;;;25.67;18.17;;;;;;;16.03;56.14;101485.72;4966038;28;20043;-70
2023/06/29 03:59:02;;;;;;;27.45;16.45;;;;;;;16.05;56.25;101489.13;4969218;28;20058;-70
2023/06/29 04:01:28;;;;;;;27.52;16.20;;;;;;;16.05;56.31;101488.28;4966991;28;20030;-69
2023/06/29 04:03:53;;;;;;;29.02;16.27;;;;;;;16.16;56.03;101486.75;4965204;28;20038;-70
2023/06/29 04:06:21;;;;;;;29.20;17.25;;;;;;;16.25;55.90;101485.41;4962724;28;20034;-70
2023/06/29 04:09:00;;;;;;;26.63;16.65;;;;;;;16.17;55.90;101487.59;4981269;28;20039;-69
2023/06/29 04:11:25;;;;;;;26.85;16.02;;;;;;;16.32;55.81;101486.75;4968197;28;20452;-71
2023/06/29 04:13:58;;;;;;;24.83;16.10;;;;;;;16.45;55.67;101486.09;4958644;28;20609;-72
2023/06/29 04:16:26;;;;;;;27.67;16.33;;;;;;;16.43;55.52;101488.81;4983323;28;20079;-70
2023/06/29 04:18:58;;;;;;;26.45;16.67;;;;;;;16.54;55.26;101494.34;4969898;28;20050;-70
2023/06/29 04:21:26;;;;;;;30.42;16.98;;;;;;;16.61;55.34;101493.06;4960454;28;20031;-70
2023/06/29 04:24:01;;;;;;;23.98;15.55;;;;;;;16.62;55.35;101484.22;4949285;28;20145;-71
2023/06/29 04:26:38;;;;;;;24.35;15.15;;;;;;;16.71;55.08;101487.25;4950784;28;20927;-71
2023/06/29 04:29:10;;;;;;;26.13;17.13;;;;;;;16.64;54.58;101486.75;4964783;28;20048;-72
2023/06/29 04:31:35;;;;;;;26.00;15.77;;;;;;;16.75;54.36;101476.47;4969464;28;20042;-76
2023/06/29 04:34:06;;;;;;;20.40;13.85;;;;;;;16.71;54.57;101460.88;4959188;28;20847;-74
2023/06/29 04:36:32;;;;;;;30.27;15.60;;;;;;;16.79;54.35;101463.97;4982688;28;20030;-71
2023/06/29 04:39:09;;;;;;;20.25;14.48;;;;;;;16.86;54.06;101462.69;4961247;28;20388;-71
2023/06/29 04:41:50;;;;;;;27.10;18.00;;;;;;;16.89;54.07;101469.56;4978509;28;20026;-68
2023/06/29 04:44:21;;;;;;;33.55;16.25;;;;;;;16.88;53.99;101473.16;4968019;28;20044;-72
2023/06/29 04:46:49;;;;;;;23.42;15.35;;;;;;;16.94;53.90;101467.53;4968919;28;20041;-72
2023/06/29 04:49:27;;;;;;;27.58;16.65;;;;;;;16.87;54.17;101461.75;4953376;28;20891;-74
2023/06/29 04:52:02;;;;;;;26.35;16.33;;;;;;;16.98;53.31;101463.78;4965530;28;20066;-70
2023/06/29 04:54:30;;;;;;;23.17;16.45;;;;;;;17.09;53.68;101461.38;4980727;28;20519;-70
2023/06/29 04:57:00;;;;;;;23.05;14.30;;;;;;;17.19;53.50;101459.03;4967240;28;20066;-74
2023/06/29 04:59:28;;;;;;;25.55;15.25;;;;;;;17.34;53.66;101452.00;4966221;28;20544;-75
2023/06/29 05:01:54;;;;;;;30.25;15.57;;;;;;;17.37;52.65;101449.16;4969392;28;20447;-75
2023/06/29 05:04:20;;;;;;;25.45;14.98;;;;;;;17.41;52.69;101451.50;4966348;28;20177;-76
2023/06/29 05:06:45;;;;;;;26.27;14.98;;;;;;;17.43;52.74;101454.91;4971141;28;20030;-75
2023/06/29 05:09:11;;;;;;;23.10;14.77;;;;;;;17.44;52.56;101453.97;4969152;28;20451;-75
2023/06/29 05:11:38;;;;;;;23.58;13.32;;;;;;;17.78;52.22;101451.97;4968139;28;20126;-71
2023/06/29 05:14:03;;;;;;;25.60;15.55;;;;;;;17.82;51.73;101458.75;4966980;28;20553;-70
2023/06/29 05:16:31;;;;;;;21.67;13.23;;;;;;;17.90;51.81;101447.72;4967540;28;20030;-71
2023/06/29 05:18:56;;;;;;;25.60;14.02;;;;;;;18.04;51.43;101445.03;4949560;28;20462;-69
2023/06/29 05:21:22;;;;;;;23.63;15.40;;;;;;;18.21;50.47;101445.81;4967107;28;20045;-70
2023/06/29 05:23:48;;;;;;;21.05;13.98;;;;;;;18.31;50.95;101446.91;4983304;28;20054;-69
2023/06/29 05:26:13;;;;;;;30.50;14.98;;;;;;;18.39;50.71;101449.09;4969455;28;20026;-71
2023/06/29 05:28:39;;;;;;;25.55;14.07;;;;;;;18.36;50.51;101438.69;4964759;28;20053;-71
2023/06/29 05:31:06;;;;;;;21.38;13.85;;;;;;;18.45;50.22;101452.19;4990239;28;20961;-72
2023/06/29 05:33:31;;;;;;;21.80;14.88;;;;;;;18.40;49.94;101445.47;4968170;28;20904;-70
2023/06/29 05:35:57;;;;;;;21.50;12.27;;;;;;;18.46;50.23;101437.16;4970965;28;20026;-70
2023/06/29 05:38:22;;;;;;;26.35;14.75;;;;;;;18.61;49.63;101437.97;4966051;28;20201;-72
2023/06/29 05:40:48;;;;;;;23.30;13.93;;;;;;;18.81;49.70;101432.19;4972362;28;20507;-70
2023/06/29 05:43:13;;;;;;;25.50;13.88;;;;;;;18.81;49.53;101426.03;4968123;28;20058;-71
2023/06/29 05:45:39;;;;;;;22.88;13.27;;;;;;;19.09;48.90;101420.63;4968024;28;20168;-71
2023/06/29 05:48:05;;;;;;;20.15;14.10;;;;;;;19.19;48.10;101426.16;4964106;28;20190;-71
2023/06/29 05:50:33;;;;;;;23.10;13.73;;;;;;;19.23;48.52;101432.94;4973277;28;20120;-71
2023/06/29 05:53:01;;;;;;;23.40;14.93;;;;;;;19.29;47.41;101423.72;4963632;28;20558;-70
2023/06/29 05:55:26;;;;;;;27.40;14.10;;;;;;;19.18;47.91;101420.97;4981121;28;20045;-71
2023/06/29 05:57:52;;;;;;;28.08;13.45;;;;;;;19.22;47.73;101431.25;4968653;28;22572;-71
2023/06/29 06:00:18;;;;;;;22.48;13.75;;;;;;;19.12;48.46;101422.22;4968817;28;20541;-68
2023/06/29 06:02:43;;;;;;;23.17;13.95;;;;;;;19.33;48.04;101424.38;4970176;28;20045;-68
2023/06/29 06:05:09;;;;;;;26.92;14.98;;;;;;;19.31;48.30;101421.81;4970944;28;20042;-72
2023/06/29 06:07:37;;;;;;;24.33;14.10;;;;;;;19.62;47.99;101420.56;4967977;28;20125;-69
2023/06/29 06:10:06;;;;;;;21.15;12.32;;;;;;;19.96;47.18;101422.66;4983302;28;20047;-70
2023/06/29 06:12:32;;;;;;;27.52;14.70;;;;;;;19.83;46.46;101415.53;4969837;28;20034;-69
2023/06/29 06:14:57;;;;;;;26.48;12.65;;;;;;;20.43;44.94;101413.91;4966981;28;20166;-69
2023/06/29 06:17:24;;;;;;;23.98;13.30;;;;;;;20.49;44.99;101416.13;4967118;28;20062;-69
2023/06/29 06:19:52;;;;;;;25.30;12.65;;;;;;;20.44;45.16;101420.94;4970063;28;20034;-69
2023/06/29 06:22:17;;;;;;;20.38;12.82;;;;;;;20.74;44.76;101425.75;4967736;28;20495;-69
2023/06/29 06:24:46;;;;;;;21.30;12.25;;;;;;;21.69;42.14;101417.69;4965206;28;20053;-69
2023/06/29 06:27:14;;;;;;;27.85;12.90;;;;;;;21.90;41.82;101411.63;4969662;28;20425;-69
2023/06/29 06:29:43;;;;;;;16.92;10.70;;;;;;;24.85;37.61;101412.97;4969040;28;20043;-69
2023/06/29 06:32:12;;;;;;;19.27;11.65;;;;;;;24.37;36.72;101405.75;4971230;28;20042;-70
2023/06/29 06:34:43;;;;;;;21.02;12.10;;;;;;;23.95;36.29;101412.19;4968476;28;20037;-70
2023/06/29 06:37:09;;;;;;;18.95;11.43;;;;;;;23.52;37.27;101415.06;4970857;28;20530;-69
2023/06/29 06:39:35;;;;;;;14.50;10.00;;;;;;;23.77;37.33;101414.63;4962690;28;20047;-68
2023/06/29 06:42:08;;;;;;;21.23;11.52;;;;;;;24.18;36.49;101407.44;4967815;28;20027;-70
2023/06/29 06:44:38;;;;;;;17.33;11.05;;;;;;;25.35;34.37;101404.75;4967926;28;20069;-70
2023/06/29 06:47:04;;;;;;;16.30;9.88;;;;;;;26.20;33.13;101402.78;4970509;28;20647;-71
2023/06/29 06:49:30;;;;;;;17.17;9.48;;;;;;;26.35;33.15;101402.25;4973405;28;20059;-71
2023/06/29 06:51:58;;;;;;;18.23;10.35;;;;;;;25.05;34.63;101405.78;4969032;28;20041;-71
2023/06/29 06:54:26;;;;;;;13.00;9.18;;;;;;;24.19;35.33;101398.47;4982381;28;20042;-69
2023/06/29 06:56:51;;;;;;;20.10;10.98;;;;;;;22.85;37.92;101401.22;4967381;28;20038;-68
2023/06/29 06:59:17;;;;;;;20.15;10.90;;;;;;;22.98;37.93;101407.16;4968636;28;20038;-70
2023/06/29 07:01:45;;;;;;;19.20;11.07;;;;;;;23.26;38.54;101410.16;4968442;28;20553;-69
2023/06/29 07:04:13;;;;;;;20.80;9.85;;;;;;;22.68;39.67;101407.06;4969188;28;20421;-69
2023/06/29 07:06:41;;;;;;;19.88;11.25;;;;;;;22.06;39.54;101404.06;4967310;28;20042;-70
2023/06/29 07:09:07;;;;;;;21.00;11.13;;;;;;;21.38;42.14;101403.25;4969143;28;20042;-69
2023/06/29 07:11:34;;;;;;;18.40;10.98;;;;;;;21.24;41.90;101406.13;4966285;28;20766;-70
2023/06/29 07:14:03;;;;;;;16.67;9.70;;;;;;;21.42;42.14;101411.81;4966415;28;20099;-70
2023/06/29 07:16:33;;;;;;;19.88;10.02;;;;;;;21.17;42.36;101408.41;4968654;28;20062;-69
2023/06/29 07:19:08;;;;;;;15.07;9.98;;;;;;;21.25;42.54;101408.66;4968246;28;20094;-68
2023/06/29 07:21:34;;;;;;;17.83;10.07;;;;;;;21.02;42.65;101402.47;4963565;28;20069;-69
2023/06/29 07:24:03;;;;;;;21.33;12.60;;;;;;;20.72;43.44;101411.75;4961530;28;20454;-70
2023/06/29 07:26:29;;;;;;;20.42;12.40;;;;;;;20.51;43.78;101397.44;4967973;28;20042;-70
2023/06/29 07:28:54;;;;;;;22.98;10.73;;;;;;;20.58;44.68;101403.13;4967652;28;20556;-70
2023/06/29 07:31:27;;;;;;;20.08;11.57;;;;;;;20.22;44.32;101399.56;4982095;28;20046;-70
2023/06/29 07:33:54;;;;;;;21.00;10.70;;;;;;;21.01;44.12;101400.75;4967613;28;20072;-70
2023/06/29 07:36:24;;;;;;;24.63;12.43;;;;;;;19.35;45.92;101394.16;4966553;28;20676;-71
2023/06/29 07:38:51;;;;;;;20.88;11.23;;;;;;;20.27;44.41;101400.09;4966771;28;20050;-70
2023/06/29 07:41:18;;;;;;;23.95;12.73;;;;;;;20.13;44.65;101399.25;4969392;28;20023;-70
2023/06/29 07:43:55;;;;;;;20.85;12.02;;;;;;;20.02;44.62;101385.91;4965973;28;20050;-70
2023/06/29 07:46:21;;;;;;;22.58;11.80;;;;;;;20.37;44.20;101389.63;4966140;28;20038;-69
2023/06/29 07:48:48;;;;;;;20.65;12.30;;;;;;;19.20;46.40;101388.09;4967557;28;20651;-68
2023/06/29 07:51:14;;;;;;;17.80;11.02;;;;;;;19.78;45.76;101392.97;4965623;28;20022;-70
2023/06/29 07:53:40;;;;;;;20.17;12.20;;;;;;;19.80;45.87;101399.84;4981008;28;20073;-70
2023/06/29 07:56:05;;;;;;;20.13;10.38;;;;;;;20.14;45.35;101400.09;4969306;28;20027;-70
2023/06/29 07:58:33;;;;;;;18.40;9.77;;;;;;;20.36;45.28;101394.09;4963163;28;20043;-70
2023/06/29 08:00:59;;;;;;;23.23;11.98;;;;;;;20.66;44.27;101396.28;4971795;28;20030;-70
2023/06/29 08:03:27;;;;;;;19.27;11.32;;;;;;;20.73;43.83;101394.88;4971762;28;20081;-70
2023/06/29 08:05:52;;;;;;;24.48;12.43;;;;;;;20.70;43.44;101394.22;4984812;28;20023;-70
2023/06/29 08:08:23;;;;;;;18.48;11.25;;;;;;;20.78;43.60;101394.50;4965979;28;20539;-70
2023/06/29 08:10:49;;;;;;;;;;;;;;;20.96;43.83;101386.16;4986352;28;20038;-70
2023/06/29 08:13:16;;;;;;;20.17;11.75;;;;;;;20.28;44.15;101391.16;4963689;28;19918;-70
2023/06/29 08:15:42;;;;;;;22.60;11.93;;;;;;;20.49;43.89;101389.56;4975978;28;20247;-70
2023/06/29 08:18:07;;;;;;;19.65;11.35;;;;;;;20.77;44.16;101387.50;4971095;28;20038;-70
2023/06/29 08:20:35;;;;;;;22.33;10.60;;;;;;;20.98;43.03;101386.88;4964701;28;20034;-69
2023/06/29 08:23:03;;;;;;;24.00;13.27;;;;;;;20.24;44.32;101385.22;4985933;28;20049;-70
2023/06/29 08:25:28;;;;;;;22.75;12.05;;;;;;;20.84;44.04;101388.78;4986687;28;20067;-70
2023/06/29 08:27:59;;;;;;;19.92;11.23;;;;;;;21.40;43.10;101380.06;4967454;28;20133;-70
2023/06/29 08:30:24;;;;;;;18.17;10.07;;;;;;;21.58;42.38;101383.09;4965946;28;20041;-69
2023/06/29 08:32:52;;;;;;;15.75;10.52;;;;;;;21.92;42.16;101375.09;4967084;28;20031;-70
2023/06/29 08:35:20;;;;;;;20.33;12.13;;;;;;;21.75;41.67;101369.28;4968969;28;20612;-69
2023/06/29 08:37:45;;;;;;;15.32;10.85;;;;;;;21.89;41.55;101372.66;4956369;28;20201;-70
2023/06/29 08:40:11;;;;;;;23.45;10.80;;;;;;;21.74;42.74;101367.59;4967229;28;20019;-70
2023/06/29 08:42:44;;;;;;;18.30;11.27;;;;;;;21.87;41.40;101355.97;4961693;28;20676;-70
2023/06/29 08:45:17;;;;;;;20.70;11.27;;;;;;;21.66;41.95;101367.38;4970065;28;20542;-69
2023/06/29 08:47:43;;;;;;;19.73;12.50;;;;;;;21.45;41.76;101367.22;4963673;28;20026;-69
2023/06/29 08:50:10;;;;;;;20.02;11.02;;;;;;;21.54;42.03;101363.03;4969246;28;20038;-70
2023/06/29 08:52:39;;;;;;;20.10;11.38;;;;;;;21.72;42.04;101363.38;4963824;28;20050;-70
2023/06/29 08:55:07;;;;;;;23.80;11.82;;;;;;;21.48;41.91;101358.19;4967176;28;20050;-70
2023/06/29 08:57:35;;;;;;;18.25;10.60;;;;;;;21.73;42.28;101357.91;4966940;28;20519;-70
2023/06/29 09:00:05;;;;;;;19.92;11.30;;;;;;;21.70;42.01;101352.84;4968134;28;20511;-70
2023/06/29 09:02:33;;;;;;;17.23;11.05;;;;;;;21.49;42.00;101357.22;4982523;28;20041;-69
2023/06/29 09:04:59;;;;;;;18.10;10.98;;;;;;;21.61;41.73;101350.94;4967517;28;20034;-70
2023/06/29 09:07:24;;;;;;;16.38;10.43;;;;;;;21.45;41.68;101350.44;4977549;28;20498;-69
2023/06/29 09:09:50;;;;;;;18.75;10.75;;;;;;;21.54;43.05;101352.41;4964673;28;20128;-70
2023/06/29 09:12:16;;;;;;;18.55;11.50;;;;;;;21.21;42.35;101354.03;4965917;28;20034;-70
2023/06/29 09:14:47;;;;;;;18.17;9.98;;;;;;;21.28;42.78;101355.25;4955824;28;20618;-70
2023/06/29 09:17:17;;;;;;;19.92;12.00;;;;;;;20.73;43.12;101354.19;4964702;28;20046;-70
2023/06/29 09:19:56;;;;;;;21.23;11.45;;;;;;;20.91;43.97;101351.97;4951358;28;20233;-70
2023/06/29 09:22:27;;;;;;;17.45;10.13;;;;;;;21.12;43.48;101344.13;4962807;28;20054;-70
2023/06/29 09:24:57;;;;;;;18.73;11.57;;;;;;;20.99;43.37;101348.69;4964708;28;20534;-70
2023/06/29 09:27:28;;;;;;;23.30;12.77;;;;;;;20.63;43.61;101342.53;4967655;28;20117;-69
2023/06/29 09:30:03;;;;;;;22.77;11.82;;;;;;;20.58;44.30;101344.72;4964962;28;20061;-70
2023/06/29 09:32:31;;;;;;;26.38;13.43;;;;;;;20.72;44.42;101345.34;4948824;28;20042;-70
2023/06/29 09:35:05;;;;;;;24.05;12.40;;;;;;;20.82;44.14;101341.97;4963503;28;20038;-70
2023/06/29 09:37:37;;;;;;;20.05;11.13;;;;;;;20.77;43.98;101345.00;4961831;28;20065;-70
2023/06/29 09:40:12;;;;;;;23.27;11.75;;;;;;;20.85;43.96;101337.31;4967241;28;20042;-71
2023/06/29 09:42:40;;;;;;;25.60;11.98;;;;;;;21.02;43.37;101335.16;4961017;28;20046;-70
2023/06/29 09:45:11;;;;;;;25.15;12.30;;;;;;;21.08;43.47;101340.00;4965800;28;20042;-70
2023/06/29 09:47:47;;;;;;;25.13;12.57;;;;;;;21.18;43.78;101343.66;4962826;28;20042;-70
2023/06/29 09:50:20;;;;;;;17.98;11.35;;;;;;;21.19;43.47;101340.03;4982065;28;20053;-69
2023/06/29 09:52:51;;;;;;;20.33;11.63;;;;;;;21.24;43.30;101337.00;4955922;28;20038;-70
2023/06/29 09:55:17;;;;;;;20.85;11.43;;;;;;;21.11;43.53;101337.09;4979250;28;20038;-70
2023/06/29 09:57:50;;;;;;;22.15;11.82;;;;;;;21.36;43.57;101342.22;4945359;28;20057;-70
2023/06/29 10:00:16;;;;;;;20.40;10.43;;;;;;;21.52;43.17;101343.69;4967722;28;20057;-70
2023/06/29 10:02:44;;;;;;;26.58;12.30;;;;;;;21.54;42.52;101336.44;4963338;28;20494;-70
2023/06/29 10:05:10;;;;;;;23.77;12.38;;;;;;;21.93;42.06;101339.50;4981550;28;20117;-70
2023/06/29 10:07:37;;;;;;;25.10;13.38;;;;;;;21.43;42.20;101336.41;4967100;28;20034;-70
2023/06/29 10:10:14;;;;;;;18.92;11.43;;;;;;;21.75;43.26;101337.34;4969095;28;20050;-70
2023/06/29 10:12:40;;;;;;;22.55;12.55;;;;;;;21.77;42.56;101334.59;4963033;28;20084;-70
2023/06/29 10:15:14;;;;;;;21.25;12.55;;;;;;;22.24;42.47;101331.72;4969294;28;20041;-70
2023/06/29 10:17:51;;;;;;;21.77;11.55;;;;;;;21.74;42.12;101335.69;4963983;28;20074;-71
2023/06/29 10:20:19;;;;;;;22.73;11.27;;;;;;;22.17;42.15;101332.22;4968805;28;20443;-70
2023/06/29 10:22:45;;;;;;;21.73;12.63;;;;;;;22.46;40.99;101326.28;4956569;28;20578;-70
2023/06/29 10:25:18;;;;;;;26.45;13.50;;;;;;;22.29;41.19;101319.72;4968188;28;20158;-70
2023/06/29 10:27:44;;;;;;;24.77;14.00;;;;;;;21.65;41.79;101315.16;4980516;28;20514;-70
2023/06/29 10:30:10;;;;;;;23.25;13.25;;;;;;;22.44;41.12;101317.56;4969180;28;20034;-70
2023/06/29 10:32:39;;;;;;;26.83;14.57;;;;;;;22.52;40.73;101314.28;4967060;28;20046;-69
2023/06/29 10:35:10;;;;;;;26.92;13.95;;;;;;;22.41;40.99;101315.19;4968311;28;20046;-71
2023/06/29 10:37:40;;;;;;;25.90;13.67;;;;;;;22.87;40.52;101303.28;4964090;28;20031;-70
2023/06/29 10:40:19;;;;;;;23.20;13.93;;;;;;;22.78;40.62;101304.09;4970337;28;20281;-70
2023/06/29 10:42:50;;;;;;;21.63;13.98;;;;;;;22.87;39.78;101308.63;4966368;28;20042;-70
2023/06/29 10:45:18;;;;;;;;;;;;;;;22.57;41.38;101309.41;4965542;28;20042;-70
2023/06/29 10:47:48;;;;;;;23.88;14.70;;;;;;;22.69;40.48;101307.53;4957105;28;20020;-70
2023/06/29 10:50:13;;;;;;;29.10;14.95;;;;;;;23.02;40.68;101300.28;4965949;28;20045;-70
2023/06/29 10:52:42;;;;;;;29.58;16.00;;;;;;;23.32;40.02;101295.00;4959422;28;20035;-70
2023/06/29 10:55:19;;;;;;;28.75;14.90;;;;;;;23.28;39.34;101293.56;4967166;28;20042;-69
2023/06/29 10:57:46;;;;;;;23.58;16.35;;;;;;;22.61;40.88;101291.34;4964016;28;20035;-70
2023/06/29 11:00:14;;;;;;;30.13;16.45;;;;;;;21.98;42.12;101294.75;4967484;28;20104;-70
2023/06/29 11:02:45;;;;;;;26.50;14.38;;;;;;;22.27;42.01;101299.50;4964900;28;20023;-70
2023/06/29 11:05:15;;;;;;;27.75;15.43;;;;;;;22.26;41.67;101287.16;4950236;28;20042;-70
2023/06/29 11:07:41;;;;;;;24.90;14.77;;;;;;;22.12;42.17;101291.81;4969131;28;20033;-70
2023/06/29 11:10:07;;;;;;;27.67;15.70;;;;;;;22.01;42.39;101289.16;4969479;28;20472;-70
2023/06/29 11:12:41;;;;;;;26.50;14.63;;;;;;;21.98;42.98;101286.78;4965212;28;20042;-69
2023/06/29 11:15:18;;;;;;;26.45;15.85;;;;;;;22.03;42.46;101283.72;4964167;28;20065;-70
2023/06/29 11:17:48;;;;;;;21.98;12.88;;;;;;;22.04;42.93;101275.59;4971268;28;20645;-70
2023/06/29 11:20:16;;;;;;;29.83;15.50;;;;;;;21.81;43.23;101282.81;4948904;28;20060;-70